createdAt,value
2023-02-22T00:01:10.900Z,24.63
2023-02-22T00:04:35.623Z,22.63
2023-02-22T00:08:01.449Z,23.30
2023-02-22T00:11:31.461Z,27.33
2023-02-22T00:15:00.563Z,21.20
2023-02-22T00:18:27.986Z,20.77
2023-02-22T00:21:58.120Z,18.83
2023-02-22T00:25:24.851Z,29.77
2023-02-22T00:28:51.305Z,19.10
2023-02-22T00:32:15.472Z,25.57
2023-02-22T00:35:40.502Z,28.20
2023-02-22T00:39:09.420Z,21.30
2023-02-22T00:42:38.076Z,24.37
2023-02-22T00:46:01.354Z,24.83
2023-02-22T00:49:29.794Z,24.50
2023-02-22T00:52:53.135Z,22.97
2023-02-22T00:56:17.584Z,20.87
2023-02-22T00:59:45.767Z,21.53
2023-02-22T01:03:11.124Z,25.93
2023-02-22T01:06:41.168Z,27.10
2023-02-22T01:10:09.311Z,22.87
2023-02-22T01:13:32.829Z,19.33
2023-02-22T01:16:57.043Z,22.13
2023-02-22T01:20:23.125Z,22.10
2023-02-22T01:24:11.564Z,23.87
2023-02-22T01:27:38.430Z,24.03
2023-02-22T01:31:01.451Z,23.20
2023-02-22T01:34:25.987Z,19.40
2023-02-22T01:37:51.065Z,23.47
2023-02-22T01:41:22.540Z,21.07
2023-02-22T01:45:30.783Z,26.63
2023-02-22T01:49:08.980Z,19.33
2023-02-22T01:52:33.765Z,20.87
2023-02-22T01:56:00.338Z,22.03
2023-02-22T01:59:24.850Z,29.40
2023-02-22T02:03:03.794Z,24.17
2023-02-22T02:06:35.687Z,23.37
2023-02-22T02:10:14.222Z,27.00
2023-02-22T02:13:49.786Z,23.87
2023-02-22T02:17:22.629Z,27.03
2023-02-22T02:21:18.674Z,23.20
2023-02-22T02:25:26.430Z,20.40
2023-02-22T02:29:25.948Z,22.27
2023-02-22T02:32:58.838Z,26.13
2023-02-22T02:36:34.796Z,25.33
2023-02-22T02:44:22.632Z,26.63
2023-02-22T02:48:04.600Z,21.20
2023-02-22T02:51:34.293Z,21.80
2023-02-22T02:55:06.798Z,24.80
2023-02-22T02:58:35.733Z,23.40
2023-02-22T03:02:26.327Z,24.37
2023-02-22T03:06:21.617Z,22.60
2023-02-22T03:10:18.013Z,29.73
2023-02-22T03:14:01.462Z,22.57
2023-02-22T03:18:02.387Z,24.03
2023-02-22T03:21:50.097Z,28.43
2023-02-22T03:25:24.765Z,24.70
2023-02-22T03:33:08.934Z,17.40
2023-02-22T03:36:41.425Z,22.13
2023-02-22T03:40:22.713Z,26.03
2023-02-22T03:43:55.505Z,24.80
2023-02-22T03:47:41.592Z,17.83
2023-02-22T03:51:21.030Z,28.30
2023-02-22T03:54:55.251Z,19.60
2023-02-22T03:58:22.359Z,19.63
2023-02-22T04:01:45.355Z,19.37
2023-02-22T04:05:09.692Z,24.10
2023-02-22T04:08:32.739Z,21.80
2023-02-22T04:11:54.613Z,19.97
2023-02-22T04:15:23.348Z,23.10
2023-02-22T04:18:48.853Z,19.77
2023-02-22T04:22:13.783Z,23.17
2023-02-22T04:25:36.931Z,22.53
2023-02-22T04:29:08.242Z,19.50
2023-02-22T04:32:33.477Z,24.40
2023-02-22T04:35:57.668Z,20.70
2023-02-22T04:39:21.889Z,22.97
2023-02-22T04:42:47.293Z,20.43
2023-02-22T04:46:09.258Z,23.27
2023-02-22T04:49:31.219Z,29.13
2023-02-22T04:52:53.846Z,18.57
2023-02-22T04:56:19.336Z,25.37
2023-02-22T04:59:43.877Z,20.20
2023-02-22T05:03:07.386Z,24.60
2023-02-22T05:06:29.191Z,24.00
2023-02-22T05:09:51.098Z,22.67
2023-02-22T05:13:14.105Z,26.67
2023-02-22T05:16:37.677Z,24.23
2023-02-22T05:19:59.842Z,22.10
2023-02-22T05:23:21.661Z,22.43
2023-02-22T05:26:51.323Z,25.10
2023-02-22T05:30:13.559Z,28.80
2023-02-22T05:33:35.612Z,26.70
2023-02-22T05:36:57.420Z,24.57
2023-02-22T05:40:24.101Z,23.30
2023-02-22T05:43:46.390Z,24.33
2023-02-22T05:47:08.193Z,26.00
2023-02-22T05:50:30.089Z,19.90
2023-02-22T05:53:52.523Z,23.73
2023-02-22T05:57:14.422Z,26.23
2023-02-22T06:00:36.533Z,24.43
2023-02-22T06:03:59.344Z,31.10
2023-02-22T06:07:22.768Z,18.80
2023-02-22T06:10:44.957Z,20.60
2023-02-22T06:14:06.817Z,22.57
2023-02-22T06:17:30.441Z,21.10
2023-02-22T06:20:53.337Z,24.10
2023-02-22T06:24:15.333Z,17.70
2023-02-22T06:27:38.256Z,22.00
2023-02-22T06:31:00.202Z,18.83
2023-02-22T06:34:24.049Z,22.40
2023-02-22T06:37:46.869Z,16.83
2023-02-22T06:41:11.001Z,21.03
2023-02-22T06:44:34.220Z,27.13
2023-02-22T06:47:56.026Z,18.90
2023-02-22T06:51:18.301Z,22.47
2023-02-22T06:54:40.282Z,25.13
2023-02-22T06:58:04.816Z,28.30
2023-02-22T07:01:26.742Z,23.80
2023-02-22T07:04:48.545Z,19.97
2023-02-22T07:08:13.349Z,31.43
2023-02-22T07:11:38.662Z,32.90
2023-02-22T07:15:00.590Z,29.23
2023-02-22T07:18:22.390Z,30.97
2023-02-22T07:21:44.509Z,27.17
2023-02-22T07:25:12.179Z,35.63
2023-02-22T07:28:34.098Z,30.30
2023-02-22T07:31:57.736Z,30.13
2023-02-22T07:35:29.636Z,31.63
2023-02-22T07:38:52.420Z,37.20
2023-02-22T07:42:14.219Z,36.20
2023-02-22T07:45:36.415Z,42.70
2023-02-22T07:48:58.241Z,41.57
2023-02-22T07:52:20.055Z,68.07
2023-02-22T07:55:42.041Z,49.70
2023-02-22T07:59:03.925Z,47.63
2023-02-22T08:02:26.701Z,47.90
2023-02-22T08:05:56.304Z,52.77
2023-02-22T08:09:18.148Z,62.43
2023-02-22T08:12:41.174Z,51.17
2023-02-22T08:16:03.622Z,62.50
2023-02-22T08:19:25.497Z,63.17
2023-02-22T08:22:48.357Z,63.60
2023-02-22T08:26:15.495Z,66.00
2023-02-22T08:29:37.357Z,60.00
2023-02-22T08:32:59.921Z,64.87
2023-02-22T08:36:21.832Z,79.23
2023-02-22T08:39:43.946Z,79.53
2023-02-22T08:43:06.574Z,75.53
2023-02-22T08:46:28.865Z,71.07
2023-02-22T08:49:50.706Z,59.73
2023-02-22T08:53:14.458Z,55.63
2023-02-22T08:56:36.332Z,52.97
2023-02-22T08:59:58.338Z,42.27
2023-02-22T09:03:21.343Z,38.23
2023-02-22T09:06:44.093Z,36.73
2023-02-22T09:10:06.594Z,38.33
2023-02-22T09:13:29.438Z,37.70
2023-02-22T09:16:51.587Z,40.40
2023-02-22T09:20:17.796Z,33.60
2023-02-22T09:23:39.664Z,43.00
2023-02-22T09:27:04.263Z,33.50
2023-02-22T09:30:33.896Z,32.97
2023-02-22T09:33:55.697Z,41.57
2023-02-22T09:37:18.540Z,34.00
2023-02-22T09:40:47.432Z,26.10
2023-02-22T09:44:56.839Z,27.50
2023-02-22T09:48:22.391Z,32.13
2023-02-22T09:51:55.600Z,27.98
2023-02-22T09:55:36.936Z,25.15
2023-02-22T09:59:05.205Z,35.03
2023-02-22T10:02:36.538Z,25.58
2023-02-22T10:06:15.617Z,31.98
2023-02-22T10:10:17.695Z,28.92
2023-02-22T10:14:16.056Z,27.08
2023-02-22T10:18:19.307Z,24.75
2023-02-22T10:22:16.000Z,35.97
2023-02-22T10:25:44.952Z,28.63
2023-02-22T10:29:42.364Z,30.83
2023-02-22T10:33:21.770Z,26.67
2023-02-22T10:36:50.223Z,24.90
2023-02-22T10:40:17.330Z,29.50
2023-02-22T10:43:52.064Z,28.33
2023-02-22T10:47:17.962Z,31.42
2023-02-22T10:50:45.623Z,34.72
2023-02-22T10:54:31.633Z,30.15
2023-02-22T10:58:13.393Z,32.45
2023-02-22T11:01:45.601Z,31.58
2023-02-22T11:05:30.963Z,31.38
2023-02-22T11:09:19.025Z,35.17
2023-02-22T11:12:47.624Z,80.55
2023-02-22T11:16:26.763Z,153.40
2023-02-22T11:19:50.397Z,557.13
2023-02-22T11:23:14.505Z,1929.65
2023-02-22T11:26:51.195Z,1972.15
2023-02-22T11:31:20.408Z,1905.63
2023-02-22T11:34:42.976Z,1616.47
2023-02-22T11:38:20.947Z,1630.57
2023-02-22T11:41:43.907Z,1982.97
2023-02-22T11:45:27.500Z,1999.90
2023-02-22T11:49:05.948Z,1999.90
2023-02-22T11:52:46.160Z,1006.00
2023-02-22T11:56:37.772Z,1999.90
2023-02-22T12:00:33.354Z,1999.90
2023-02-22T12:04:26.597Z,1999.90
2023-02-22T12:08:41.055Z,1908.28
2023-02-22T12:12:38.007Z,1999.90
2023-02-22T12:16:33.159Z,751.13
2023-02-22T12:20:06.869Z,272.92
2023-02-22T12:23:40.597Z,162.55
2023-02-22T12:27:33.708Z,88.22
2023-02-22T12:31:29.584Z,45.50
2023-02-22T12:35:20.680Z,42.47
2023-02-22T12:38:58.180Z,39.70
2023-02-22T12:42:46.967Z,47.47
2023-02-22T12:46:20.177Z,33.63
2023-02-22T12:49:58.290Z,33.67
2023-02-22T12:53:35.132Z,37.30
2023-02-22T12:57:34.427Z,30.88
2023-02-22T13:01:12.103Z,51.53
2023-02-22T13:04:36.804Z,34.22
2023-02-22T13:08:31.743Z,26.65
2023-02-22T13:12:40.864Z,32.28
2023-02-22T13:16:27.830Z,38.33
2023-02-22T13:20:01.642Z,34.75
2023-02-22T13:23:54.263Z,38.00
2023-02-22T13:27:48.690Z,36.13
2023-02-22T13:31:45.611Z,32.85
2023-02-22T13:35:36.725Z,78.50
2023-02-22T13:39:45.703Z,88.57
2023-02-22T13:43:28.051Z,82.88
2023-02-22T13:47:23.077Z,89.40
2023-02-22T13:51:17.067Z,64.80
2023-02-22T13:54:46.540Z,54.63
2023-02-22T13:58:12.449Z,42.83
2023-02-22T14:01:46.736Z,51.83
2023-02-22T14:05:39.572Z,49.97
2023-02-22T14:09:08.498Z,71.00
2023-02-22T14:12:30.250Z,124.38
2023-02-22T14:16:19.533Z,55.30
2023-02-22T14:19:41.528Z,1999.90
2023-02-22T14:23:35.350Z,1999.90
2023-02-22T14:27:06.196Z,1999.90
2023-02-22T14:30:33.445Z,1999.90
2023-02-22T14:34:06.113Z,491.45
2023-02-22T14:37:39.118Z,47.45
2023-02-22T14:41:03.421Z,35.30
2023-02-22T14:44:48.769Z,44.75
2023-02-22T14:48:39.374Z,24.40
2023-02-22T14:52:17.314Z,33.13
2023-02-22T14:55:56.585Z,26.77
2023-02-22T14:59:25.210Z,22.67
2023-02-22T15:02:57.999Z,27.80
2023-02-22T15:10:50.017Z,25.15
2023-02-22T15:14:38.154Z,27.30
2023-02-22T15:18:29.948Z,22.52
2023-02-22T15:21:55.819Z,24.95
2023-02-22T15:25:28.088Z,29.63
2023-02-22T15:28:59.756Z,25.85
2023-02-22T15:32:37.198Z,28.52
2023-02-22T15:35:59.487Z,29.05
2023-02-22T15:39:33.069Z,36.13
2023-02-22T15:43:05.177Z,31.65
2023-02-22T15:46:27.339Z,32.67
2023-02-22T15:50:32.204Z,32.88
2023-02-22T15:54:03.020Z,26.83
2023-02-22T15:57:27.247Z,32.15
2023-02-22T16:01:03.651Z,23.50
2023-02-22T16:04:32.012Z,29.60
2023-02-22T16:07:53.963Z,33.20
2023-02-22T16:11:40.197Z,32.00
2023-02-22T16:15:03.131Z,34.20
2023-02-22T16:18:38.215Z,30.48
2023-02-22T16:22:05.093Z,33.75
2023-02-22T16:25:41.700Z,30.02
2023-02-22T16:29:08.765Z,31.88
2023-02-22T16:32:30.783Z,41.55
2023-02-22T16:35:52.736Z,32.30
2023-02-22T16:39:26.976Z,32.95
2023-02-22T16:42:48.806Z,29.35
2023-02-22T16:46:10.762Z,34.75
2023-02-22T16:49:32.617Z,35.15
2023-02-22T16:53:01.089Z,34.20
2023-02-22T16:56:31.134Z,33.75
2023-02-22T16:59:55.302Z,32.40
2023-02-22T17:03:18.800Z,30.67
2023-02-22T17:06:48.556Z,34.10
2023-02-22T17:10:33.095Z,38.80
2023-02-22T17:13:55.924Z,33.42
2023-02-22T17:17:26.586Z,34.13
2023-02-22T17:20:50.981Z,30.70
2023-02-22T17:24:16.170Z,39.05
2023-02-22T17:27:42.123Z,32.35
2023-02-22T17:31:04.186Z,33.03
2023-02-22T17:34:29.246Z,35.60
2023-02-22T17:37:52.387Z,35.50
2023-02-22T17:41:16.198Z,34.42
2023-02-22T17:44:38.091Z,33.30
2023-02-22T17:47:59.998Z,34.45
2023-02-22T17:51:25.079Z,31.98
2023-02-22T17:54:47.004Z,27.80
2023-02-22T17:58:14.882Z,33.13
2023-02-22T18:01:39.135Z,29.10
2023-02-22T18:05:18.331Z,37.17
2023-02-22T18:08:48.720Z,40.85
2023-02-22T18:12:12.005Z,33.53
2023-02-22T18:15:36.707Z,29.30
2023-02-22T18:19:02.995Z,32.38
2023-02-22T18:22:24.879Z,34.92
2023-02-22T18:26:03.823Z,32.55
2023-02-22T18:29:33.327Z,35.72
2023-02-22T18:32:57.381Z,30.75
2023-02-22T18:36:22.911Z,37.53
2023-02-22T18:39:49.756Z,48.00
2023-02-22T18:43:24.612Z,49.13
2023-02-22T18:46:46.728Z,50.13
2023-02-22T18:50:11.017Z,45.30
2023-02-22T18:53:35.332Z,38.72
2023-02-22T18:56:58.105Z,41.90
2023-02-22T19:00:28.703Z,35.38
2023-02-22T19:03:56.382Z,38.50
2023-02-22T19:07:20.118Z,39.10
2023-02-22T19:10:52.570Z,40.67
2023-02-22T19:14:22.745Z,40.90
2023-02-22T19:17:46.769Z,45.20
2023-02-22T19:21:16.630Z,48.30
2023-02-22T19:24:47.265Z,40.75
2023-02-22T19:28:11.505Z,37.33
2023-02-22T19:31:34.873Z,41.93
2023-02-22T19:35:02.503Z,40.33
2023-02-22T19:38:32.274Z,43.20
2023-02-22T19:41:57.520Z,45.33
2023-02-22T19:45:21.042Z,39.22
2023-02-22T19:48:46.571Z,42.95
2023-02-22T19:52:11.005Z,41.95
2023-02-22T19:55:36.968Z,39.20
2023-02-22T19:59:13.626Z,41.28
2023-02-22T20:02:40.695Z,44.63
2023-02-22T20:06:11.908Z,38.53
2023-02-22T20:09:36.458Z,38.50
2023-02-22T20:13:14.841Z,40.40
2023-02-22T20:16:38.291Z,41.85
2023-02-22T20:20:00.286Z,46.27
2023-02-22T20:24:01.295Z,36.40
2023-02-22T20:27:52.876Z,38.97
2023-02-22T20:35:59.874Z,37.92
2023-02-22T20:39:52.185Z,39.85
2023-02-22T20:43:47.134Z,38.80
2023-02-22T20:56:24.005Z,35.67
2023-02-22T20:59:48.717Z,35.20
2023-02-22T21:03:13.114Z,34.07
2023-02-22T21:11:25.593Z,35.93
2023-02-22T21:15:28.860Z,40.87
2023-02-22T21:19:44.186Z,40.55
2023-02-22T21:23:20.050Z,39.80
2023-02-22T21:26:58.974Z,38.92
2023-02-22T21:31:29.342Z,38.65
2023-02-22T21:38:17.209Z,38.57
2023-02-22T21:45:46.008Z,40.03
2023-02-22T21:53:39.413Z,36.95
2023-02-22T21:57:01.671Z,35.72
2023-02-22T22:00:29.261Z,39.27
2023-02-22T22:03:51.211Z,40.10
2023-02-22T22:07:13.996Z,44.78
2023-02-22T22:10:37.811Z,39.45
2023-02-22T22:14:00.331Z,48.85
2023-02-22T22:17:22.504Z,45.10
2023-02-22T22:20:44.937Z,47.22
2023-02-22T22:24:16.363Z,48.97
2023-02-22T22:27:40.099Z,47.83
2023-02-22T22:31:05.009Z,48.50
2023-02-22T22:34:29.416Z,42.90
2023-02-22T22:37:52.279Z,42.05
2023-02-22T22:41:19.284Z,42.47
2023-02-22T22:44:53.604Z,48.67
2023-02-22T22:48:15.703Z,42.10
2023-02-22T22:51:41.099Z,51.35
2023-02-22T22:55:03.319Z,40.92
2023-02-22T22:58:25.157Z,44.00
2023-02-22T23:01:47.050Z,42.83
2023-02-22T23:05:09.592Z,40.30
2023-02-22T23:08:44.962Z,41.53
2023-02-22T23:12:18.861Z,40.63
2023-02-22T23:15:48.366Z,38.28
2023-02-22T23:19:10.336Z,44.13
2023-02-22T23:22:33.082Z,43.17
2023-02-22T23:26:03.253Z,43.83
2023-02-22T23:29:28.635Z,46.22
2023-02-22T23:32:50.521Z,49.05
2023-02-22T23:36:12.398Z,48.90
2023-02-22T23:39:35.571Z,44.45
2023-02-22T23:42:58.006Z,49.17
2023-02-22T23:46:21.336Z,48.05
2023-02-22T23:49:49.907Z,47.30
2023-02-22T23:53:15.057Z,46.90
2023-02-22T23:56:40.442Z,47.33
